sensor_id;sensor_type;location;lat;lon;timestamp;P1;durP1;ratioP1;P2;durP2;ratioP2
23406;SDS011;11876;53.438;18.942;2023-07-13T00:00:47;16.08;;;12.15;;
23406;SDS011;11876;53.438;18.942;2023-07-13T00:05:57;14.35;;;12.02;;
23406;SDS011;11876;53.438;18.942;2023-07-13T00:11:03;12.38;;;10.10;;
23406;SDS011;11876;53.438;18.942;2023-07-13T00:16:09;10.52;;;8.75;;
23406;SDS011;11876;53.438;18.942;2023-07-13T00:21:13;10.00;;;7.88;;
23406;SDS011;11876;53.438;18.942;2023-07-13T00:26:16;9.23;;;7.28;;
23406;SDS011;11876;53.438;18.942;2023-07-13T00:31:18;6.95;;;6.15;;
23406;SDS011;11876;53.438;18.942;2023-07-13T00:36:21;6.72;;;6.13;;
23406;SDS011;11876;53.438;18.942;2023-07-13T00:41:24;8.57;;;6.53;;
23406;SDS011;11876;53.438;18.942;2023-07-13T00:46:28;8.50;;;6.25;;
23406;SDS011;11876;53.438;18.942;2023-07-13T00:51:43;8.27;;;5.60;;
23406;SDS011;11876;53.438;18.942;2023-07-13T00:56:48;8.20;;;6.10;;
23406;SDS011;11876;53.438;18.942;2023-07-13T01:01:53;8.15;;;5.78;;
23406;SDS011;11876;53.438;18.942;2023-07-13T01:06:57;12.45;;;6.20;;
23406;SDS011;11876;53.438;18.942;2023-07-13T01:12:02;8.75;;;5.40;;
23406;SDS011;11876;53.438;18.942;2023-07-13T01:17:05;6.22;;;5.63;;
23406;SDS011;11876;53.438;18.942;2023-07-13T01:22:09;8.15;;;6.07;;
23406;SDS011;11876;53.438;18.942;2023-07-13T01:27:17;8.85;;;6.80;;
23406;SDS011;11876;53.438;18.942;2023-07-13T01:32:23;6.82;;;6.13;;
23406;SDS011;11876;53.438;18.942;2023-07-13T01:37:29;6.60;;;6.00;;
23406;SDS011;11876;53.438;18.942;2023-07-13T01:42:35;10.65;;;9.05;;
23406;SDS011;11876;53.438;18.942;2023-07-13T01:47:38;10.30;;;9.18;;
23406;SDS011;11876;53.438;18.942;2023-07-13T01:52:41;10.40;;;7.70;;
23406;SDS011;11876;53.438;18.942;2023-07-13T01:57:43;16.98;;;9.15;;
23406;SDS011;11876;53.438;18.942;2023-07-13T02:02:47;13.75;;;7.10;;
23406;SDS011;11876;53.438;18.942;2023-07-13T02:07:49;16.05;;;8.27;;
23406;SDS011;11876;53.438;18.942;2023-07-13T02:12:52;12.52;;;7.65;;
23406;SDS011;11876;53.438;18.942;2023-07-13T02:17:54;25.65;;;8.57;;
23406;SDS011;11876;53.438;18.942;2023-07-13T02:22:58;19.13;;;9.13;;
23406;SDS011;11876;53.438;18.942;2023-07-13T02:28:01;20.48;;;10.77;;
23406;SDS011;11876;53.438;18.942;2023-07-13T02:33:03;15.00;;;8.85;;
23406;SDS011;11876;53.438;18.942;2023-07-13T02:38:07;12.38;;;8.05;;
23406;SDS011;11876;53.438;18.942;2023-07-13T02:43:10;13.25;;;8.90;;
23406;SDS011;11876;53.438;18.942;2023-07-13T02:48:13;11.18;;;8.32;;
23406;SDS011;11876;53.438;18.942;2023-07-13T02:53:16;17.00;;;10.82;;
23406;SDS011;11876;53.438;18.942;2023-07-13T02:58:19;16.02;;;10.23;;
23406;SDS011;11876;53.438;18.942;2023-07-13T03:03:21;13.02;;;9.80;;
23406;SDS011;11876;53.438;18.942;2023-07-13T03:08:25;12.50;;;9.20;;
23406;SDS011;11876;53.438;18.942;2023-07-13T03:13:28;13.57;;;8.73;;
23406;SDS011;11876;53.438;18.942;2023-07-13T03:18:31;11.40;;;9.30;;
23406;SDS011;11876;53.438;18.942;2023-07-13T03:23:37;16.93;;;9.57;;
23406;SDS011;11876;53.438;18.942;2023-07-13T03:28:41;21.13;;;9.90;;
23406;SDS011;11876;53.438;18.942;2023-07-13T03:33:49;15.15;;;9.43;;
23406;SDS011;11876;53.438;18.942;2023-07-13T03:38:53;15.32;;;10.23;;
23406;SDS011;11876;53.438;18.942;2023-07-13T03:44:01;13.38;;;9.70;;
23406;SDS011;11876;53.438;18.942;2023-07-13T03:49:04;16.98;;;11.20;;
23406;SDS011;11876;53.438;18.942;2023-07-13T03:54:07;13.88;;;10.20;;
23406;SDS011;11876;53.438;18.942;2023-07-13T03:59:09;13.00;;;10.80;;
23406;SDS011;11876;53.438;18.942;2023-07-13T04:04:12;12.13;;;9.95;;
23406;SDS011;11876;53.438;18.942;2023-07-13T04:09:14;13.35;;;9.27;;
23406;SDS011;11876;53.438;18.942;2023-07-13T04:14:17;9.95;;;8.13;;
23406;SDS011;11876;53.438;18.942;2023-07-13T04:19:21;11.95;;;8.20;;
23406;SDS011;11876;53.438;18.942;2023-07-13T04:24:23;10.48;;;9.20;;
23406;SDS011;11876;53.438;18.942;2023-07-13T04:29:26;9.70;;;8.70;;
23406;SDS011;11876;53.438;18.942;2023-07-13T04:34:29;13.60;;;9.73;;
23406;SDS011;11876;53.438;18.942;2023-07-13T04:39:31;12.50;;;10.80;;
23406;SDS011;11876;53.438;18.942;2023-07-13T04:44:34;13.13;;;10.38;;
23406;SDS011;11876;53.438;18.942;2023-07-13T04:49:36;14.57;;;11.20;;
23406;SDS011;11876;53.438;18.942;2023-07-13T04:54:39;12.50;;;11.10;;
23406;SDS011;11876;53.438;18.942;2023-07-13T04:59:41;12.50;;;11.18;;
23406;SDS011;11876;53.438;18.942;2023-07-13T05:04:46;12.35;;;9.30;;
23406;SDS011;11876;53.438;18.942;2023-07-13T05:14:54;11.55;;;9.90;;
23406;SDS011;11876;53.438;18.942;2023-07-13T05:19:58;13.10;;;9.25;;
23406;SDS011;11876;53.438;18.942;2023-07-13T05:25:01;11.48;;;9.55;;
23406;SDS011;11876;53.438;18.942;2023-07-13T05:30:06;13.65;;;9.35;;
23406;SDS011;11876;53.438;18.942;2023-07-13T05:35:12;10.82;;;7.20;;
23406;SDS011;11876;53.438;18.942;2023-07-13T05:40:15;8.80;;;7.20;;
23406;SDS011;11876;53.438;18.942;2023-07-13T05:45:18;9.60;;;6.78;;
23406;SDS011;11876;53.438;18.942;2023-07-13T05:50:20;8.48;;;6.30;;
23406;SDS011;11876;53.438;18.942;2023-07-13T05:55:23;7.85;;;6.05;;
23406;SDS011;11876;53.438;18.942;2023-07-13T06:00:26;5.93;;;5.15;;
23406;SDS011;11876;53.438;18.942;2023-07-13T06:05:28;6.43;;;4.13;;
23406;SDS011;11876;53.438;18.942;2023-07-13T06:10:34;9.27;;;4.43;;
23406;SDS011;11876;53.438;18.942;2023-07-13T06:15:37;3.97;;;3.22;;
23406;SDS011;11876;53.438;18.942;2023-07-13T06:20:40;14.70;;;3.80;;
23406;SDS011;11876;53.438;18.942;2023-07-13T06:25:43;4.15;;;2.53;;
23406;SDS011;11876;53.438;18.942;2023-07-13T06:30:46;6.35;;;3.45;;
23406;SDS011;11876;53.438;18.942;2023-07-13T06:35:48;6.47;;;3.28;;
23406;SDS011;11876;53.438;18.942;2023-07-13T06:40:51;10.57;;;3.08;;
23406;SDS011;11876;53.438;18.942;2023-07-13T06:45:54;6.13;;;3.15;;
23406;SDS011;11876;53.438;18.942;2023-07-13T06:50:58;6.00;;;2.67;;
23406;SDS011;11876;53.438;18.942;2023-07-13T06:56:00;5.50;;;2.50;;
23406;SDS011;11876;53.438;18.942;2023-07-13T07:01:03;14.02;;;3.50;;
23406;SDS011;11876;53.438;18.942;2023-07-13T07:06:13;5.10;;;1.88;;
23406;SDS011;11876;53.438;18.942;2023-07-13T07:11:21;6.65;;;2.00;;
23406;SDS011;11876;53.438;18.942;2023-07-13T07:16:25;4.93;;;2.05;;
23406;SDS011;11876;53.438;18.942;2023-07-13T07:21:28;16.50;;;3.05;;
23406;SDS011;11876;53.438;18.942;2023-07-13T07:26:31;14.48;;;2.58;;
23406;SDS011;11876;53.438;18.942;2023-07-13T07:31:45;10.60;;;2.38;;
23406;SDS011;11876;53.438;18.942;2023-07-13T07:36:50;5.43;;;1.60;;
23406;SDS011;11876;53.438;18.942;2023-07-13T07:41:56;5.80;;;3.13;;
23406;SDS011;11876;53.438;18.942;2023-07-13T07:46:58;3.72;;;1.55;;
23406;SDS011;11876;53.438;18.942;2023-07-13T07:52:01;5.75;;;2.20;;
23406;SDS011;11876;53.438;18.942;2023-07-13T07:57:04;2.33;;;1.52;;
23406;SDS011;11876;53.438;18.942;2023-07-13T08:02:10;3.45;;;1.63;;
23406;SDS011;11876;53.438;18.942;2023-07-13T08:07:33;3.67;;;1.52;;
23406;SDS011;11876;53.438;18.942;2023-07-13T08:12:36;4.55;;;1.85;;
23406;SDS011;11876;53.438;18.942;2023-07-13T08:17:42;5.45;;;2.00;;
23406;SDS011;11876;53.438;18.942;2023-07-13T08:22:46;7.60;;;2.08;;
23406;SDS011;11876;53.438;18.942;2023-07-13T08:27:48;4.80;;;1.80;;
23406;SDS011;11876;53.438;18.942;2023-07-13T08:32:51;7.07;;;2.00;;
23406;SDS011;11876;53.438;18.942;2023-07-13T08:37:55;5.43;;;2.03;;
23406;SDS011;11876;53.438;18.942;2023-07-13T08:42:58;5.28;;;2.13;;
23406;SDS011;11876;53.438;18.942;2023-07-13T08:48:05;5.05;;;2.55;;
23406;SDS011;11876;53.438;18.942;2023-07-13T08:53:12;3.97;;;1.90;;
23406;SDS011;11876;53.438;18.942;2023-07-13T08:58:16;4.63;;;2.20;;
23406;SDS011;11876;53.438;18.942;2023-07-13T09:03:23;5.65;;;2.30;;
23406;SDS011;11876;53.438;18.942;2023-07-13T09:18:51;3.35;;;1.70;;
23406;SDS011;11876;53.438;18.942;2023-07-13T09:23:58;3.75;;;2.45;;
23406;SDS011;11876;53.438;18.942;2023-07-13T09:29:06;8.85;;;2.58;;
23406;SDS011;11876;53.438;18.942;2023-07-13T09:34:14;5.18;;;2.42;;
23406;SDS011;11876;53.438;18.942;2023-07-13T09:39:37;4.95;;;2.28;;
23406;SDS011;11876;53.438;18.942;2023-07-13T09:50:03;2.80;;;1.80;;
23406;SDS011;11876;53.438;18.942;2023-07-13T10:00:40;4.78;;;2.28;;
23406;SDS011;11876;53.438;18.942;2023-07-13T10:05:43;6.15;;;2.28;;
23406;SDS011;11876;53.438;18.942;2023-07-13T10:10:52;4.10;;;2.45;;
23406;SDS011;11876;53.438;18.942;2023-07-13T10:16:11;3.78;;;2.33;;
23406;SDS011;11876;53.438;18.942;2023-07-13T10:21:17;5.57;;;2.78;;
23406;SDS011;11876;53.438;18.942;2023-07-13T10:26:36;6.63;;;2.60;;
23406;SDS011;11876;53.438;18.942;2023-07-13T10:31:40;5.63;;;2.50;;
23406;SDS011;11876;53.438;18.942;2023-07-13T10:36:45;4.78;;;2.30;;
23406;SDS011;11876;53.438;18.942;2023-07-13T10:41:53;5.93;;;3.30;;
23406;SDS011;11876;53.438;18.942;2023-07-13T10:46:59;2.95;;;2.30;;
23406;SDS011;11876;53.438;18.942;2023-07-13T10:52:04;3.35;;;2.20;;
23406;SDS011;11876;53.438;18.942;2023-07-13T10:57:19;3.00;;;2.05;;
23406;SDS011;11876;53.438;18.942;2023-07-13T11:02:25;3.70;;;2.10;;
23406;SDS011;11876;53.438;18.942;2023-07-13T11:07:30;3.77;;;1.90;;
23406;SDS011;11876;53.438;18.942;2023-07-13T11:12:53;2.80;;;2.00;;
23406;SDS011;11876;53.438;18.942;2023-07-13T11:17:56;3.65;;;2.03;;
23406;SDS011;11876;53.438;18.942;2023-07-13T11:23:15;5.55;;;2.15;;
23406;SDS011;11876;53.438;18.942;2023-07-13T11:28:24;3.67;;;1.77;;
23406;SDS011;11876;53.438;18.942;2023-07-13T11:33:49;2.10;;;1.52;;
23406;SDS011;11876;53.438;18.942;2023-07-13T11:49:30;5.25;;;2.08;;
23406;SDS011;11876;53.438;18.942;2023-07-13T11:54:41;4.35;;;1.70;;
23406;SDS011;11876;53.438;18.942;2023-07-13T11:59:57;2.92;;;1.85;;
23406;SDS011;11876;53.438;18.942;2023-07-13T12:05:00;2.50;;;1.50;;
23406;SDS011;11876;53.438;18.942;2023-07-13T12:10:17;3.72;;;1.60;;
23406;SDS011;11876;53.438;18.942;2023-07-13T12:15:21;3.45;;;1.73;;
23406;SDS011;11876;53.438;18.942;2023-07-13T12:20:26;5.22;;;1.73;;
23406;SDS011;11876;53.438;18.942;2023-07-13T12:25:30;4.00;;;1.80;;
23406;SDS011;11876;53.438;18.942;2023-07-13T12:30:32;2.22;;;1.40;;
23406;SDS011;11876;53.438;18.942;2023-07-13T12:35:47;3.80;;;1.50;;
23406;SDS011;11876;53.438;18.942;2023-07-13T12:40:53;2.20;;;1.23;;
23406;SDS011;11876;53.438;18.942;2023-07-13T12:46:03;5.50;;;2.38;;
23406;SDS011;11876;53.438;18.942;2023-07-13T12:51:09;3.35;;;2.05;;
23406;SDS011;11876;53.438;18.942;2023-07-13T12:56:15;3.55;;;1.90;;
23406;SDS011;11876;53.438;18.942;2023-07-13T13:01:26;4.35;;;1.90;;
23406;SDS011;11876;53.438;18.942;2023-07-13T13:06:30;3.53;;;1.92;;
23406;SDS011;11876;53.438;18.942;2023-07-13T13:11:32;3.55;;;1.90;;
23406;SDS011;11876;53.438;18.942;2023-07-13T13:21:42;2.30;;;1.80;;
23406;SDS011;11876;53.438;18.942;2023-07-13T13:26:45;5.68;;;2.20;;
23406;SDS011;11876;53.438;18.942;2023-07-13T13:31:48;6.68;;;2.80;;
23406;SDS011;11876;53.438;18.942;2023-07-13T13:36:51;4.20;;;2.08;;
23406;SDS011;11876;53.438;18.942;2023-07-13T13:42:00;8.82;;;2.63;;
23406;SDS011;11876;53.438;18.942;2023-07-13T13:47:03;3.35;;;2.05;;
23406;SDS011;11876;53.438;18.942;2023-07-13T13:52:08;8.20;;;2.05;;
23406;SDS011;11876;53.438;18.942;2023-07-13T13:57:11;5.05;;;2.47;;
23406;SDS011;11876;53.438;18.942;2023-07-13T14:02:32;3.13;;;1.90;;
23406;SDS011;11876;53.438;18.942;2023-07-13T14:07:34;3.15;;;1.80;;
23406;SDS011;11876;53.438;18.942;2023-07-13T14:12:37;7.20;;;2.35;;
23406;SDS011;11876;53.438;18.942;2023-07-13T14:17:39;4.47;;;2.03;;
23406;SDS011;11876;53.438;18.942;2023-07-13T14:22:45;3.88;;;2.20;;
23406;SDS011;11876;53.438;18.942;2023-07-13T14:27:49;5.43;;;1.90;;
23406;SDS011;11876;53.438;18.942;2023-07-13T14:32:57;4.53;;;1.90;;
23406;SDS011;11876;53.438;18.942;2023-07-13T14:37:59;5.95;;;2.40;;
23406;SDS011;11876;53.438;18.942;2023-07-13T14:43:02;2.92;;;2.10;;
23406;SDS011;11876;53.438;18.942;2023-07-13T14:48:05;2.80;;;2.22;;
23406;SDS011;11876;53.438;18.942;2023-07-13T14:53:20;4.13;;;1.40;;
23406;SDS011;11876;53.438;18.942;2023-07-13T14:58:23;2.50;;;1.70;;
23406;SDS011;11876;53.438;18.942;2023-07-13T15:03:26;5.10;;;2.75;;
23406;SDS011;11876;53.438;18.942;2023-07-13T15:08:28;6.72;;;2.95;;
23406;SDS011;11876;53.438;18.942;2023-07-13T15:13:31;4.30;;;2.40;;
23406;SDS011;11876;53.438;18.942;2023-07-13T15:18:33;2.85;;;2.10;;
23406;SDS011;11876;53.438;18.942;2023-07-13T15:23:36;6.10;;;5.50;;
23406;SDS011;11876;53.438;18.942;2023-07-13T15:28:40;5.80;;;3.22;;
23406;SDS011;11876;53.438;18.942;2023-07-13T15:33:43;5.70;;;2.78;;
23406;SDS011;11876;53.438;18.942;2023-07-13T15:38:47;3.90;;;2.05;;
23406;SDS011;11876;53.438;18.942;2023-07-13T15:43:53;2.25;;;2.05;;
23406;SDS011;11876;53.438;18.942;2023-07-13T15:48:57;2.30;;;1.63;;
23406;SDS011;11876;53.438;18.942;2023-07-13T15:54:00;2.97;;;2.08;;
23406;SDS011;11876;53.438;18.942;2023-07-13T15:59:13;23.30;;;3.42;;
23406;SDS011;11876;53.438;18.942;2023-07-13T16:04:16;6.37;;;2.47;;
23406;SDS011;11876;53.438;18.942;2023-07-13T16:09:22;4.93;;;2.08;;
23406;SDS011;11876;53.438;18.942;2023-07-13T16:14:25;4.57;;;2.70;;
23406;SDS011;11876;53.438;18.942;2023-07-13T16:19:28;7.43;;;3.10;;
23406;SDS011;11876;53.438;18.942;2023-07-13T16:24:31;3.28;;;2.28;;
23406;SDS011;11876;53.438;18.942;2023-07-13T16:29:34;3.03;;;2.28;;
23406;SDS011;11876;53.438;18.942;2023-07-13T16:34:37;5.85;;;2.70;;
23406;SDS011;11876;53.438;18.942;2023-07-13T16:39:42;7.53;;;2.78;;
23406;SDS011;11876;53.438;18.942;2023-07-13T16:44:48;6.53;;;2.42;;
23406;SDS011;11876;53.438;18.942;2023-07-13T16:49:53;4.55;;;3.65;;
23406;SDS011;11876;53.438;18.942;2023-07-13T16:54:59;10.25;;;4.60;;
23406;SDS011;11876;53.438;18.942;2023-07-13T17:00:04;3.65;;;2.40;;
23406;SDS011;11876;53.438;18.942;2023-07-13T17:05:18;4.78;;;3.03;;
23406;SDS011;11876;53.438;18.942;2023-07-13T17:10:21;5.93;;;3.28;;
23406;SDS011;11876;53.438;18.942;2023-07-13T17:15:24;4.57;;;2.67;;
23406;SDS011;11876;53.438;18.942;2023-07-13T17:20:30;3.35;;;2.63;;
23406;SDS011;11876;53.438;18.942;2023-07-13T17:25:38;3.25;;;2.28;;
23406;SDS011;11876;53.438;18.942;2023-07-13T17:30:42;4.30;;;2.40;;
23406;SDS011;11876;53.438;18.942;2023-07-13T17:35:45;3.88;;;1.77;;
23406;SDS011;11876;53.438;18.942;2023-07-13T17:40:48;6.18;;;2.65;;
23406;SDS011;11876;53.438;18.942;2023-07-13T17:45:50;6.75;;;2.63;;
23406;SDS011;11876;53.438;18.942;2023-07-13T17:50:55;3.00;;;2.03;;
23406;SDS011;11876;53.438;18.942;2023-07-13T17:56:01;19.63;;;2.88;;
23406;SDS011;11876;53.438;18.942;2023-07-13T18:01:09;4.75;;;2.28;;
23406;SDS011;11876;53.438;18.942;2023-07-13T18:06:16;6.05;;;3.30;;
23406;SDS011;11876;53.438;18.942;2023-07-13T18:11:20;9.10;;;2.92;;
23406;SDS011;11876;53.438;18.942;2023-07-13T18:16:24;5.15;;;2.58;;
23406;SDS011;11876;53.438;18.942;2023-07-13T18:21:29;5.80;;;2.72;;
23406;SDS011;11876;53.438;18.942;2023-07-13T18:26:32;5.28;;;2.97;;
23406;SDS011;11876;53.438;18.942;2023-07-13T18:31:35;5.90;;;2.45;;
23406;SDS011;11876;53.438;18.942;2023-07-13T18:36:38;4.32;;;2.10;;
23406;SDS011;11876;53.438;18.942;2023-07-13T18:41:41;5.72;;;3.53;;
23406;SDS011;11876;53.438;18.942;2023-07-13T18:46:46;3.70;;;2.72;;
23406;SDS011;11876;53.438;18.942;2023-07-13T18:51:50;10.18;;;3.95;;
23406;SDS011;11876;53.438;18.942;2023-07-13T18:56:52;5.10;;;2.95;;
23406;SDS011;11876;53.438;18.942;2023-07-13T19:01:55;9.40;;;4.38;;
23406;SDS011;11876;53.438;18.942;2023-07-13T19:06:57;6.30;;;4.47;;
23406;SDS011;11876;53.438;18.942;2023-07-13T19:12:00;3.55;;;2.83;;
23406;SDS011;11876;53.438;18.942;2023-07-13T19:17:02;7.68;;;4.20;;
23406;SDS011;11876;53.438;18.942;2023-07-13T19:22:05;11.05;;;9.25;;
23406;SDS011;11876;53.438;18.942;2023-07-13T19:27:09;12.55;;;10.90;;
23406;SDS011;11876;53.438;18.942;2023-07-13T19:32:13;11.32;;;10.15;;
23406;SDS011;11876;53.438;18.942;2023-07-13T19:37:20;20.60;;;12.55;;
23406;SDS011;11876;53.438;18.942;2023-07-13T19:42:24;11.70;;;10.57;;
23406;SDS011;11876;53.438;18.942;2023-07-13T19:47:27;10.40;;;9.30;;
23406;SDS011;11876;53.438;18.942;2023-07-13T19:52:30;8.10;;;7.28;;
23406;SDS011;11876;53.438;18.942;2023-07-13T19:57:32;9.48;;;7.43;;
23406;SDS011;11876;53.438;18.942;2023-07-13T20:02:35;8.63;;;6.43;;
23406;SDS011;11876;53.438;18.942;2023-07-13T20:07:37;6.82;;;5.60;;
23406;SDS011;11876;53.438;18.942;2023-07-13T20:12:39;8.48;;;5.43;;
23406;SDS011;11876;53.438;18.942;2023-07-13T20:17:42;13.55;;;7.30;;
23406;SDS011;11876;53.438;18.942;2023-07-13T20:22:45;12.75;;;8.27;;
23406;SDS011;11876;53.438;18.942;2023-07-13T20:27:48;12.88;;;8.73;;
23406;SDS011;11876;53.438;18.942;2023-07-13T20:32:51;15.30;;;9.30;;
23406;SDS011;11876;53.438;18.942;2023-07-13T20:37:57;14.95;;;10.07;;
23406;SDS011;11876;53.438;18.942;2023-07-13T20:42:59;9.73;;;6.78;;
23406;SDS011;11876;53.438;18.942;2023-07-13T20:53:20;12.45;;;6.97;;
23406;SDS011;11876;53.438;18.942;2023-07-13T20:58:23;9.80;;;7.47;;
23406;SDS011;11876;53.438;18.942;2023-07-13T21:03:26;6.47;;;5.25;;
23406;SDS011;11876;53.438;18.942;2023-07-13T21:08:29;7.07;;;4.97;;
23406;SDS011;11876;53.438;18.942;2023-07-13T21:13:31;19.08;;;8.20;;
23406;SDS011;11876;53.438;18.942;2023-07-13T21:18:34;10.27;;;6.28;;
23406;SDS011;11876;53.438;18.942;2023-07-13T21:23:39;12.18;;;7.70;;
23406;SDS011;11876;53.438;18.942;2023-07-13T21:28:45;12.75;;;8.30;;
23406;SDS011;11876;53.438;18.942;2023-07-13T21:33:49;10.10;;;5.83;;
23406;SDS011;11876;53.438;18.942;2023-07-13T21:39:02;8.77;;;6.80;;
23406;SDS011;11876;53.438;18.942;2023-07-13T21:49:20;8.88;;;6.25;;
23406;SDS011;11876;53.438;18.942;2023-07-13T21:54:22;4.82;;;3.88;;
23406;SDS011;11876;53.438;18.942;2023-07-13T21:59:26;16.80;;;6.43;;
23406;SDS011;11876;53.438;18.942;2023-07-13T22:04:29;4.57;;;3.90;;
23406;SDS011;11876;53.438;18.942;2023-07-13T22:09:32;4.72;;;4.10;;
23406;SDS011;11876;53.438;18.942;2023-07-13T22:14:34;8.00;;;4.55;;
23406;SDS011;11876;53.438;18.942;2023-07-13T22:19:36;6.15;;;4.00;;
23406;SDS011;11876;53.438;18.942;2023-07-13T22:24:39;6.32;;;4.00;;
23406;SDS011;11876;53.438;18.942;2023-07-13T22:29:41;9.10;;;5.20;;
23406;SDS011;11876;53.438;18.942;2023-07-13T22:34:44;8.75;;;5.22;;
23406;SDS011;11876;53.438;18.942;2023-07-13T22:39:46;5.78;;;4.72;;
23406;SDS011;11876;53.438;18.942;2023-07-13T22:44:49;7.65;;;4.65;;
23406;SDS011;11876;53.438;18.942;2023-07-13T22:49:52;12.18;;;5.72;;
23406;SDS011;11876;53.438;18.942;2023-07-13T22:54:55;13.80;;;6.75;;
23406;SDS011;11876;53.438;18.942;2023-07-13T22:59:59;9.18;;;6.72;;
23406;SDS011;11876;53.438;18.942;2023-07-13T23:05:02;11.00;;;7.18;;
23406;SDS011;11876;53.438;18.942;2023-07-13T23:10:13;10.88;;;6.65;;
23406;SDS011;11876;53.438;18.942;2023-07-13T23:15:18;8.30;;;5.25;;
23406;SDS011;11876;53.438;18.942;2023-07-13T23:20:22;10.38;;;5.95;;
23406;SDS011;11876;53.438;18.942;2023-07-13T23:25:32;8.55;;;5.72;;
23406;SDS011;11876;53.438;18.942;2023-07-13T23:30:35;6.80;;;5.22;;
23406;SDS011;11876;53.438;18.942;2023-07-13T23:35:38;9.00;;;6.22;;
23406;SDS011;11876;53.438;18.942;2023-07-13T23:40:40;10.32;;;5.35;;
23406;SDS011;11876;53.438;18.942;2023-07-13T23:45:43;6.22;;;4.68;;
23406;SDS011;11876;53.438;18.942;2023-07-13T23:50:52;7.55;;;4.82;;
23406;SDS011;11876;53.438;18.942;2023-07-13T23:55:54;10.02;;;5.78;;
